sensor_id;sensor_type;location;lat;lon;timestamp;pressure;altitude;pressure_sealevel;temperature;humidity
27984;BME280;15317;50.360;8.726;2023-02-18T00:04:44;100161.50;;;10.34;100.00
27984;BME280;15317;50.360;8.726;2023-02-18T00:08:47;100153.78;;;10.39;100.00
27984;BME280;15317;50.360;8.726;2023-02-18T00:12:49;100155.78;;;10.37;100.00
27984;BME280;15317;50.360;8.726;2023-02-18T00:16:51;100158.34;;;10.29;100.00
27984;BME280;15317;50.360;8.726;2023-02-18T00:20:54;100161.78;;;10.21;100.00
27984;BME280;15317;50.360;8.726;2023-02-18T00:24:56;100170.06;;;10.20;100.00
27984;BME280;15317;50.360;8.726;2023-02-18T00:28:58;100172.03;;;10.18;100.00
27984;BME280;15317;50.360;8.726;2023-02-18T00:33:00;100162.91;;;10.19;100.00
27984;BME280;15317;50.360;8.726;2023-02-18T00:37:04;100169.59;;;10.15;100.00
27984;BME280;15317;50.360;8.726;2023-02-18T00:41:06;100163.00;;;10.08;100.00
27984;BME280;15317;50.360;8.726;2023-02-18T00:45:08;100165.00;;;10.06;100.00
27984;BME280;15317;50.360;8.726;2023-02-18T00:49:10;100163.72;;;10.10;100.00
27984;BME280;15317;50.360;8.726;2023-02-18T00:53:13;100161.72;;;10.12;100.00
27984;BME280;15317;50.360;8.726;2023-02-18T00:57:15;100152.53;;;10.03;100.00
27984;BME280;15317;50.360;8.726;2023-02-18T01:01:18;100159.28;;;9.99;100.00
27984;BME280;15317;50.360;8.726;2023-02-18T01:05:20;100154.13;;;10.06;100.00
27984;BME280;15317;50.360;8.726;2023-02-18T01:09:23;100156.28;;;10.12;100.00
27984;BME280;15317;50.360;8.726;2023-02-18T01:13:26;100153.16;;;10.07;100.00
27984;BME280;15317;50.360;8.726;2023-02-18T01:17:28;100145.72;;;10.09;100.00
27984;BME280;15317;50.360;8.726;2023-02-18T01:21:30;100155.00;;;10.06;100.00
27984;BME280;15317;50.360;8.726;2023-02-18T01:25:34;100145.00;;;10.07;100.00
27984;BME280;15317;50.360;8.726;2023-02-18T01:29:36;100137.13;;;10.04;100.00
27984;BME280;15317;50.360;8.726;2023-02-18T01:33:38;100133.41;;;10.05;100.00
27984;BME280;15317;50.360;8.726;2023-02-18T01:37:41;100138.84;;;10.05;100.00
27984;BME280;15317;50.360;8.726;2023-02-18T01:41:44;100122.00;;;10.01;100.00
27984;BME280;15317;50.360;8.726;2023-02-18T01:45:51;100128.84;;;9.96;100.00
27984;BME280;15317;50.360;8.726;2023-02-18T01:49:56;100132.00;;;10.01;100.00
27984;BME280;15317;50.360;8.726;2023-02-18T01:54:02;100116.72;;;10.09;100.00
27984;BME280;15317;50.360;8.726;2023-02-18T01:58:07;100118.00;;;10.15;100.00
27984;BME280;15317;50.360;8.726;2023-02-18T02:02:11;100109.59;;;10.18;100.00
27984;BME280;15317;50.360;8.726;2023-02-18T02:06:17;100103.19;;;10.19;100.00
27984;BME280;15317;50.360;8.726;2023-02-18T02:10:19;100095.03;;;10.19;100.00
27984;BME280;15317;50.360;8.726;2023-02-18T02:14:32;100100.72;;;10.16;100.00
27984;BME280;15317;50.360;8.726;2023-02-18T02:18:47;100106.16;;;10.16;100.00
27984;BME280;15317;50.360;8.726;2023-02-18T02:27:24;100095.56;;;10.13;100.00
27984;BME280;15317;50.360;8.726;2023-02-18T02:31:41;100093.75;;;10.23;100.00
27984;BME280;15317;50.360;8.726;2023-02-18T02:35:52;100088.34;;;10.23;100.00
27984;BME280;15317;50.360;8.726;2023-02-18T02:40:03;100092.91;;;10.22;100.00
27984;BME280;15317;50.360;8.726;2023-02-18T02:44:14;100084.91;;;10.21;100.00
27984;BME280;15317;50.360;8.726;2023-02-18T02:48:24;100085.16;;;10.18;100.00
27984;BME280;15317;50.360;8.726;2023-02-18T02:52:33;100071.59;;;10.18;100.00
27984;BME280;15317;50.360;8.726;2023-02-18T02:56:38;100079.75;;;10.18;100.00
27984;BME280;15317;50.360;8.726;2023-02-18T03:00:49;100084.59;;;10.24;100.00
27984;BME280;15317;50.360;8.726;2023-02-18T03:05:19;100084.91;;;10.21;100.00
27984;BME280;15317;50.360;8.726;2023-02-18T03:09:32;100090.59;;;10.18;100.00
27984;BME280;15317;50.360;8.726;2023-02-18T03:13:50;100082.84;;;10.04;100.00
27984;BME280;15317;50.360;8.726;2023-02-18T03:17:57;100074.13;;;9.90;100.00
27984;BME280;15317;50.360;8.726;2023-02-18T03:22:05;100079.97;;;9.86;100.00
27984;BME280;15317;50.360;8.726;2023-02-18T03:26:12;100074.25;;;9.79;100.00
27984;BME280;15317;50.360;8.726;2023-02-18T03:30:20;100057.81;;;9.71;100.00
27984;BME280;15317;50.360;8.726;2023-02-18T03:34:28;100070.53;;;9.71;100.00
27984;BME280;15317;50.360;8.726;2023-02-18T03:38:34;100065.13;;;9.80;100.00
27984;BME280;15317;50.360;8.726;2023-02-18T03:42:39;100068.88;;;9.89;100.00
27984;BME280;15317;50.360;8.726;2023-02-18T03:46:43;100068.88;;;9.89;100.00
27984;BME280;15317;50.360;8.726;2023-02-18T03:50:45;100072.72;;;9.96;100.00
27984;BME280;15317;50.360;8.726;2023-02-18T03:54:47;100059.72;;;10.00;100.00
27984;BME280;15317;50.360;8.726;2023-02-18T03:58:50;100061.72;;;10.07;100.00
27984;BME280;15317;50.360;8.726;2023-02-18T04:02:52;100058.69;;;10.10;100.00
27984;BME280;15317;50.360;8.726;2023-02-18T04:06:54;100063.44;;;10.08;100.00
27984;BME280;15317;50.360;8.726;2023-02-18T04:10:56;100056.56;;;10.14;100.00
27984;BME280;15317;50.360;8.726;2023-02-18T04:14:59;100061.72;;;10.17;100.00
27984;BME280;15317;50.360;8.726;2023-02-18T04:19:01;100046.03;;;10.20;100.00
27984;BME280;15317;50.360;8.726;2023-02-18T04:23:04;100033.59;;;10.18;100.00
27984;BME280;15317;50.360;8.726;2023-02-18T04:27:06;100027.16;;;10.19;100.00
27984;BME280;15317;50.360;8.726;2023-02-18T04:31:09;100038.56;;;10.13;100.00
27984;BME280;15317;50.360;8.726;2023-02-18T04:35:11;100036.56;;;10.15;100.00
27984;BME280;15317;50.360;8.726;2023-02-18T04:39:13;100039.56;;;10.12;100.00
27984;BME280;15317;50.360;8.726;2023-02-18T04:43:15;100037.88;;;10.20;100.00
27984;BME280;15317;50.360;8.726;2023-02-18T04:47:19;100036.84;;;10.12;100.00
27984;BME280;15317;50.360;8.726;2023-02-18T04:51:21;100040.88;;;10.08;100.00
27984;BME280;15317;50.360;8.726;2023-02-18T04:55:23;100036.56;;;10.05;100.00
27984;BME280;15317;50.360;8.726;2023-02-18T04:59:25;100041.72;;;9.99;100.00
27984;BME280;15317;50.360;8.726;2023-02-18T05:03:29;100026.59;;;9.96;100.00
27984;BME280;15317;50.360;8.726;2023-02-18T05:07:31;100024.00;;;9.85;100.00
27984;BME280;15317;50.360;8.726;2023-02-18T05:11:33;100010.28;;;9.77;100.00
27984;BME280;15317;50.360;8.726;2023-02-18T05:15:35;100015.16;;;9.73;100.00
27984;BME280;15317;50.360;8.726;2023-02-18T05:19:38;100007.84;;;9.64;100.00
27984;BME280;15317;50.360;8.726;2023-02-18T05:23:40;99994.13;;;9.56;100.00
27984;BME280;15317;50.360;8.726;2023-02-18T05:27:42;99995.44;;;9.52;100.00
27984;BME280;15317;50.360;8.726;2023-02-18T05:31:44;99992.00;;;9.50;100.00
27984;BME280;15317;50.360;8.726;2023-02-18T05:35:48;99984.28;;;9.45;100.00
27984;BME280;15317;50.360;8.726;2023-02-18T05:39:50;99968.72;;;9.38;100.00
27984;BME280;15317;50.360;8.726;2023-02-18T05:43:52;99960.88;;;9.44;100.00
27984;BME280;15317;50.360;8.726;2023-02-18T05:48:12;99963.31;;;9.38;100.00
27984;BME280;15317;50.360;8.726;2023-02-18T05:52:16;99971.44;;;9.38;100.00
27984;BME280;15317;50.360;8.726;2023-02-18T05:56:18;99954.03;;;9.40;100.00
27984;BME280;15317;50.360;8.726;2023-02-18T06:00:20;99961.44;;;9.38;100.00
27984;BME280;15317;50.360;8.726;2023-02-18T06:04:22;99955.44;;;9.35;100.00
27984;BME280;15317;50.360;8.726;2023-02-18T06:08:25;99960.44;;;9.30;100.00
27984;BME280;15317;50.360;8.726;2023-02-18T06:12:27;99954.56;;;9.25;100.00
27984;BME280;15317;50.360;8.726;2023-02-18T06:16:30;99955.88;;;9.21;100.00
27984;BME280;15317;50.360;8.726;2023-02-18T06:20:32;99961.56;;;9.18;100.00
27984;BME280;15317;50.360;8.726;2023-02-18T06:24:35;99960.00;;;9.25;100.00
27984;BME280;15317;50.360;8.726;2023-02-18T06:28:37;99960.25;;;9.12;100.00
27984;BME280;15317;50.360;8.726;2023-02-18T06:32:39;99943.41;;;9.08;100.00
27984;BME280;15317;50.360;8.726;2023-02-18T06:36:41;99954.53;;;9.05;100.00
27984;BME280;15317;50.360;8.726;2023-02-18T06:40:46;99947.66;;;9.01;100.00
27984;BME280;15317;50.360;8.726;2023-02-18T06:44:48;99949.53;;;9.01;100.00
27984;BME280;15317;50.360;8.726;2023-02-18T06:48:50;99942.25;;;9.01;100.00
27984;BME280;15317;50.360;8.726;2023-02-18T06:52:52;99935.16;;;9.00;100.00
27984;BME280;15317;50.360;8.726;2023-02-18T06:56:55;99941.25;;;9.02;100.00
27984;BME280;15317;50.360;8.726;2023-02-18T07:00:57;99933.72;;;9.06;100.00
27984;BME280;15317;50.360;8.726;2023-02-18T07:05:00;99930.59;;;9.10;100.00
27984;BME280;15317;50.360;8.726;2023-02-18T07:09:02;99921.47;;;9.11;100.00
27984;BME280;15317;50.360;8.726;2023-02-18T07:13:05;99911.19;;;9.15;100.00
27984;BME280;15317;50.360;8.726;2023-02-18T07:17:07;99912.78;;;9.18;100.00
27984;BME280;15317;50.360;8.726;2023-02-18T07:21:09;99910.50;;;9.23;100.00
27984;BME280;15317;50.360;8.726;2023-02-18T07:25:11;99904.50;;;9.29;100.00
27984;BME280;15317;50.360;8.726;2023-02-18T07:29:15;99903.50;;;9.30;100.00
27984;BME280;15317;50.360;8.726;2023-02-18T07:33:17;99912.38;;;9.32;100.00
27984;BME280;15317;50.360;8.726;2023-02-18T07:37:19;99908.81;;;9.41;100.00
27984;BME280;15317;50.360;8.726;2023-02-18T07:41:21;99915.78;;;9.43;100.00
27984;BME280;15317;50.360;8.726;2023-02-18T07:45:25;99910.94;;;9.47;100.00
27984;BME280;15317;50.360;8.726;2023-02-18T07:49:27;99899.25;;;9.46;100.00
27984;BME280;15317;50.360;8.726;2023-02-18T07:53:29;99905.22;;;9.50;100.00
27984;BME280;15317;50.360;8.726;2023-02-18T07:57:31;99906.09;;;9.60;100.00
27984;BME280;15317;50.360;8.726;2023-02-18T08:01:34;99907.81;;;9.61;100.00
27984;BME280;15317;50.360;8.726;2023-02-18T08:05:36;99914.91;;;9.62;100.00
27984;BME280;15317;50.360;8.726;2023-02-18T08:09:38;99916.63;;;9.63;100.00
27984;BME280;15317;50.360;8.726;2023-02-18T08:13:40;99923.50;;;9.67;100.00
27984;BME280;15317;50.360;8.726;2023-02-18T08:17:43;99937.06;;;9.67;100.00
27984;BME280;15317;50.360;8.726;2023-02-18T08:21:45;99935.50;;;9.74;100.00
27984;BME280;15317;50.360;8.726;2023-02-18T08:25:49;99944.31;;;9.76;100.00
27984;BME280;15317;50.360;8.726;2023-02-18T08:29:52;99947.03;;;9.76;100.00
27984;BME280;15317;50.360;8.726;2023-02-18T08:33:58;99946.16;;;9.76;100.00
27984;BME280;15317;50.360;8.726;2023-02-18T08:38:00;99941.47;;;9.78;100.00
27984;BME280;15317;50.360;8.726;2023-02-18T08:42:02;99952.31;;;9.78;100.00
27984;BME280;15317;50.360;8.726;2023-02-18T08:46:04;99935.78;;;9.81;100.00
27984;BME280;15317;50.360;8.726;2023-02-18T08:50:08;99945.19;;;9.86;100.00
27984;BME280;15317;50.360;8.726;2023-02-18T08:54:11;99944.88;;;9.89;100.00
27984;BME280;15317;50.360;8.726;2023-02-18T08:58:13;99946.31;;;9.94;100.00
27984;BME280;15317;50.360;8.726;2023-02-18T09:02:15;99938.19;;;9.94;100.00
27984;BME280;15317;50.360;8.726;2023-02-18T09:06:18;99942.59;;;9.95;100.00
27984;BME280;15317;50.360;8.726;2023-02-18T09:10:21;99951.72;;;10.03;100.00
27984;BME280;15317;50.360;8.726;2023-02-18T09:14:23;99946.16;;;10.05;100.00
27984;BME280;15317;50.360;8.726;2023-02-18T09:18:25;99932.72;;;10.03;100.00
27984;BME280;15317;50.360;8.726;2023-02-18T09:22:28;99927.59;;;10.10;100.00
27984;BME280;15317;50.360;8.726;2023-02-18T09:26:32;99934.88;;;10.19;100.00
27984;BME280;15317;50.360;8.726;2023-02-18T09:30:34;99948.72;;;10.25;100.00
27984;BME280;15317;50.360;8.726;2023-02-18T09:34:36;99940.88;;;10.22;100.00
27984;BME280;15317;50.360;8.726;2023-02-18T09:38:40;99962.00;;;10.28;100.00
27984;BME280;15317;50.360;8.726;2023-02-18T09:42:42;99965.44;;;10.21;100.00
27984;BME280;15317;50.360;8.726;2023-02-18T09:46:49;99956.00;;;10.15;100.00
27984;BME280;15317;50.360;8.726;2023-02-18T09:50:52;99953.16;;;10.17;100.00
27984;BME280;15317;50.360;8.726;2023-02-18T09:54:56;99955.88;;;10.17;100.00
27984;BME280;15317;50.360;8.726;2023-02-18T09:59:02;99948.84;;;10.14;100.00
27984;BME280;15317;50.360;8.726;2023-02-18T10:03:07;99957.13;;;10.13;100.00
27984;BME280;15317;50.360;8.726;2023-02-18T10:07:20;99945.72;;;10.19;100.00
27984;BME280;15317;50.360;8.726;2023-02-18T10:11:30;99946.00;;;10.16;99.52
27984;BME280;15317;50.360;8.726;2023-02-18T10:15:33;99944.44;;;10.23;98.72
27984;BME280;15317;50.360;8.726;2023-02-18T10:19:37;99929.16;;;10.22;98.76
27984;BME280;15317;50.360;8.726;2023-02-18T10:23:46;99935.13;;;10.25;97.87
27984;BME280;15317;50.360;8.726;2023-02-18T10:27:53;99931.44;;;10.26;97.65
27984;BME280;15317;50.360;8.726;2023-02-18T10:31:58;99941.16;;;10.29;98.17
27984;BME280;15317;50.360;8.726;2023-02-18T10:36:14;99930.41;;;10.37;96.27
27984;BME280;15317;50.360;8.726;2023-02-18T10:40:23;99938.84;;;10.34;95.16
27984;BME280;15317;50.360;8.726;2023-02-18T10:44:36;99922.53;;;10.44;94.46
27984;BME280;15317;50.360;8.726;2023-02-18T10:48:52;99924.31;;;10.62;94.62
27984;BME280;15317;50.360;8.726;2023-02-18T10:53:00;99921.88;;;10.59;93.57
27984;BME280;15317;50.360;8.726;2023-02-18T10:57:03;99917.56;;;10.66;93.39
27984;BME280;15317;50.360;8.726;2023-02-18T11:01:13;99923.63;;;10.78;94.39
27984;BME280;15317;50.360;8.726;2023-02-18T11:05:21;99929.75;;;10.90;92.40
27984;BME280;15317;50.360;8.726;2023-02-18T11:09:30;99921.38;;;11.01;93.55
27984;BME280;15317;50.360;8.726;2023-02-18T11:13:35;99905.38;;;10.98;95.62
27984;BME280;15317;50.360;8.726;2023-02-18T11:17:40;99910.13;;;10.96;97.20
27984;BME280;15317;50.360;8.726;2023-02-18T11:21:42;99899.47;;;10.85;96.31
27984;BME280;15317;50.360;8.726;2023-02-18T11:25:56;99910.41;;;10.65;99.27
27984;BME280;15317;50.360;8.726;2023-02-18T11:30:03;99911.00;;;10.59;98.26
27984;BME280;15317;50.360;8.726;2023-02-18T11:34:14;99898.13;;;10.61;97.65
27984;BME280;15317;50.360;8.726;2023-02-18T11:38:23;99888.75;;;10.46;98.49
27984;BME280;15317;50.360;8.726;2023-02-18T11:42:26;99873.94;;;10.41;98.71
27984;BME280;15317;50.360;8.726;2023-02-18T11:46:28;99865.94;;;10.39;98.95
27984;BME280;15317;50.360;8.726;2023-02-18T11:50:33;99866.75;;;10.49;97.05
27984;BME280;15317;50.360;8.726;2023-02-18T11:54:35;99843.78;;;10.44;97.07
27984;BME280;15317;50.360;8.726;2023-02-18T11:58:39;99831.22;;;10.60;96.63
27984;BME280;15317;50.360;8.726;2023-02-18T12:02:41;99839.69;;;10.85;95.46
27984;BME280;15317;50.360;8.726;2023-02-18T12:06:55;99831.38;;;11.04;94.47
27984;BME280;15317;50.360;8.726;2023-02-18T12:11:05;99848.94;;;11.09;93.28
27984;BME280;15317;50.360;8.726;2023-02-18T12:15:08;99851.97;;;11.24;93.26
27984;BME280;15317;50.360;8.726;2023-02-18T12:19:31;99856.47;;;11.33;92.50
27984;BME280;15317;50.360;8.726;2023-02-18T12:23:42;99861.84;;;11.25;89.89
27984;BME280;15317;50.360;8.726;2023-02-18T12:27:58;99841.31;;;11.31;90.72
27984;BME280;15317;50.360;8.726;2023-02-18T12:32:12;99816.75;;;11.40;91.17
27984;BME280;15317;50.360;8.726;2023-02-18T12:36:25;99854.28;;;11.55;92.78
27984;BME280;15317;50.360;8.726;2023-02-18T12:40:42;99855.91;;;11.47;92.79
27984;BME280;15317;50.360;8.726;2023-02-18T12:44:57;99846.53;;;11.24;97.49
27984;BME280;15317;50.360;8.726;2023-02-18T12:49:17;99855.69;;;11.59;96.78
27984;BME280;15317;50.360;8.726;2023-02-18T12:53:38;99856.75;;;11.66;98.14
27984;BME280;15317;50.360;8.726;2023-02-18T12:57:53;99854.63;;;11.95;95.61
27984;BME280;15317;50.360;8.726;2023-02-18T13:02:03;99845.28;;;11.98;94.78
27984;BME280;15317;50.360;8.726;2023-02-18T13:06:26;99861.78;;;11.96;93.73
27984;BME280;15317;50.360;8.726;2023-02-18T13:11:00;99854.97;;;11.74;95.36
27984;BME280;15317;50.360;8.726;2023-02-18T13:15:12;99844.16;;;11.65;95.63
27984;BME280;15317;50.360;8.726;2023-02-18T13:19:20;99845.66;;;11.59;98.51
27984;BME280;15317;50.360;8.726;2023-02-18T13:23:27;99861.75;;;11.53;99.02
27984;BME280;15317;50.360;8.726;2023-02-18T13:27:36;99842.75;;;11.61;100.00
27984;BME280;15317;50.360;8.726;2023-02-18T13:31:49;99837.44;;;11.51;100.00
27984;BME280;15317;50.360;8.726;2023-02-18T13:35:57;99856.75;;;11.66;100.00
27984;BME280;15317;50.360;8.726;2023-02-18T13:40:01;99855.13;;;11.55;100.00
27984;BME280;15317;50.360;8.726;2023-02-18T13:44:08;99848.25;;;11.69;100.00
27984;BME280;15317;50.360;8.726;2023-02-18T13:48:25;99854.81;;;11.76;99.38
27984;BME280;15317;50.360;8.726;2023-02-18T13:52:28;99849.22;;;11.77;99.79
27984;BME280;15317;50.360;8.726;2023-02-18T13:56:32;99845.16;;;11.64;99.23
27984;BME280;15317;50.360;8.726;2023-02-18T14:00:36;99846.97;;;11.55;100.00
27984;BME280;15317;50.360;8.726;2023-02-18T14:04:51;99852.25;;;11.57;100.00
27984;BME280;15317;50.360;8.726;2023-02-18T14:13:37;99855.06;;;11.65;100.00
27984;BME280;15317;50.360;8.726;2023-02-18T14:17:41;99852.41;;;11.55;100.00
27984;BME280;15317;50.360;8.726;2023-02-18T14:21:45;99845.47;;;11.61;99.69
27984;BME280;15317;50.360;8.726;2023-02-18T14:25:49;99847.81;;;11.73;100.00
27984;BME280;15317;50.360;8.726;2023-02-18T14:29:52;99847.47;;;11.94;100.00
27984;BME280;15317;50.360;8.726;2023-02-18T14:38:44;99842.44;;;11.81;99.20
27984;BME280;15317;50.360;8.726;2023-02-18T14:42:54;99851.16;;;11.85;98.74
27984;BME280;15317;50.360;8.726;2023-02-18T14:47:19;99837.59;;;11.93;98.56
27984;BME280;15317;50.360;8.726;2023-02-18T14:51:28;99839.94;;;11.88;98.42
27984;BME280;15317;50.360;8.726;2023-02-18T14:55:36;99839.94;;;11.88;97.52
27984;BME280;15317;50.360;8.726;2023-02-18T14:59:41;99850.16;;;11.86;98.19
27984;BME280;15317;50.360;8.726;2023-02-18T15:03:45;99847.41;;;11.86;96.69
27984;BME280;15317;50.360;8.726;2023-02-18T15:07:54;99844.25;;;11.55;98.31
27984;BME280;15317;50.360;8.726;2023-02-18T15:12:00;99830.69;;;11.37;99.15
27984;BME280;15317;50.360;8.726;2023-02-18T15:16:06;99842.63;;;11.44;100.00
27984;BME280;15317;50.360;8.726;2023-02-18T15:20:11;99851.81;;;11.43;100.00
27984;BME280;15317;50.360;8.726;2023-02-18T15:24:22;99843.25;;;11.21;100.00
27984;BME280;15317;50.360;8.726;2023-02-18T15:28:28;99846.94;;;11.12;100.00
27984;BME280;15317;50.360;8.726;2023-02-18T15:32:31;99844.88;;;10.96;100.00
27984;BME280;15317;50.360;8.726;2023-02-18T15:36:33;99842.16;;;10.96;100.00
27984;BME280;15317;50.360;8.726;2023-02-18T15:40:36;99847.47;;;10.97;100.00
27984;BME280;15317;50.360;8.726;2023-02-18T15:44:45;99845.34;;;10.91;100.00
27984;BME280;15317;50.360;8.726;2023-02-18T15:48:48;99845.94;;;10.85;100.00
27984;BME280;15317;50.360;8.726;2023-02-18T15:52:52;99835.78;;;10.87;100.00
27984;BME280;15317;50.360;8.726;2023-02-18T15:56:59;99844.78;;;10.88;100.00
27984;BME280;15317;50.360;8.726;2023-02-18T16:01:05;99841.22;;;10.87;100.00
27984;BME280;15317;50.360;8.726;2023-02-18T16:05:12;99834.53;;;10.82;100.00
27984;BME280;15317;50.360;8.726;2023-02-18T16:09:17;99845.16;;;10.75;100.00
27984;BME280;15317;50.360;8.726;2023-02-18T16:13:21;99852.75;;;10.72;100.00
27984;BME280;15317;50.360;8.726;2023-02-18T16:17:26;99859.22;;;10.71;100.00
27984;BME280;15317;50.360;8.726;2023-02-18T16:21:30;99852.50;;;10.65;100.00
27984;BME280;15317;50.360;8.726;2023-02-18T16:25:40;99848.25;;;10.62;100.00
27984;BME280;15317;50.360;8.726;2023-02-18T16:29:43;99851.97;;;10.61;100.00
27984;BME280;15317;50.360;8.726;2023-02-18T16:33:47;99860.56;;;10.57;100.00
27984;BME280;15317;50.360;8.726;2023-02-18T16:37:49;99853.56;;;10.54;100.00
27984;BME280;15317;50.360;8.726;2023-02-18T16:41:51;99844.47;;;10.46;100.00
27984;BME280;15317;50.360;8.726;2023-02-18T16:45:55;99862.94;;;10.42;100.00
27984;BME280;15317;50.360;8.726;2023-02-18T16:49:59;99858.75;;;10.48;100.00
27984;BME280;15317;50.360;8.726;2023-02-18T16:54:01;99862.22;;;10.40;100.00
27984;BME280;15317;50.360;8.726;2023-02-18T16:58:03;99857.09;;;10.37;100.00
27984;BME280;15317;50.360;8.726;2023-02-18T17:02:14;99863.22;;;10.39;100.00
27984;BME280;15317;50.360;8.726;2023-02-18T17:06:20;99866.63;;;10.41;100.00
27984;BME280;15317;50.360;8.726;2023-02-18T17:10:22;99870.81;;;10.36;100.00
27984;BME280;15317;50.360;8.726;2023-02-18T17:14:24;99877.69;;;10.30;100.00
27984;BME280;15317;50.360;8.726;2023-02-18T17:18:26;99879.06;;;10.44;100.00
27984;BME280;15317;50.360;8.726;2023-02-18T17:22:30;99880.81;;;10.35;100.00
27984;BME280;15317;50.360;8.726;2023-02-18T17:26:32;99878.81;;;10.37;100.00
27984;BME280;15317;50.360;8.726;2023-02-18T17:30:36;99874.56;;;10.25;100.00
27984;BME280;15317;50.360;8.726;2023-02-18T17:34:38;99886.00;;;10.19;100.00
27984;BME280;15317;50.360;8.726;2023-02-18T17:38:42;99894.72;;;10.13;100.00
27984;BME280;15317;50.360;8.726;2023-02-18T17:42:44;99902.56;;;10.16;100.00
27984;BME280;15317;50.360;8.726;2023-02-18T17:46:46;99904.00;;;10.10;100.00
27984;BME280;15317;50.360;8.726;2023-02-18T17:50:49;99903.44;;;10.07;100.00
27984;BME280;15317;50.360;8.726;2023-02-18T17:54:52;99907.47;;;10.03;100.00
27984;BME280;15317;50.360;8.726;2023-02-18T17:58:54;99896.03;;;9.99;100.00
27984;BME280;15317;50.360;8.726;2023-02-18T18:02:56;99907.03;;;9.98;100.00
27984;BME280;15317;50.360;8.726;2023-02-18T18:06:59;99902.75;;;9.95;100.00
27984;BME280;15317;50.360;8.726;2023-02-18T18:11:02;99906.88;;;9.89;100.00
27984;BME280;15317;50.360;8.726;2023-02-18T18:15:21;99908.47;;;9.92;100.00
27984;BME280;15317;50.360;8.726;2023-02-18T18:19:23;99912.91;;;9.83;100.00
27984;BME280;15317;50.360;8.726;2023-02-18T18:23:25;99916.47;;;9.84;100.00
27984;BME280;15317;50.360;8.726;2023-02-18T18:27:30;99912.03;;;9.83;100.00
27984;BME280;15317;50.360;8.726;2023-02-18T18:31:32;99919.06;;;9.66;100.00
27984;BME280;15317;50.360;8.726;2023-02-18T18:35:35;99914.50;;;9.57;100.00
27984;BME280;15317;50.360;8.726;2023-02-18T18:39:38;99926.91;;;9.50;100.00
27984;BME280;15317;50.360;8.726;2023-02-18T18:43:41;99922.78;;;9.46;100.00
27984;BME280;15317;50.360;8.726;2023-02-18T18:47:43;99929.19;;;9.45;100.00
27984;BME280;15317;50.360;8.726;2023-02-18T18:51:45;99928.06;;;9.38;100.00
27984;BME280;15317;50.360;8.726;2023-02-18T18:55:48;99930.63;;;9.30;100.00
27984;BME280;15317;50.360;8.726;2023-02-18T18:59:52;99928.03;;;9.28;100.00
27984;BME280;15317;50.360;8.726;2023-02-18T19:03:54;99916.34;;;9.18;100.00
27984;BME280;15317;50.360;8.726;2023-02-18T19:07:56;99922.31;;;9.12;100.00
27984;BME280;15317;50.360;8.726;2023-02-18T19:11:59;99913.16;;;9.03;100.00
27984;BME280;15317;50.360;8.726;2023-02-18T19:16:05;99920.16;;;8.96;100.00
27984;BME280;15317;50.360;8.726;2023-02-18T19:20:11;99922.00;;;8.96;100.00
27984;BME280;15317;50.360;8.726;2023-02-18T19:24:14;99926.28;;;8.98;100.00
27984;BME280;15317;50.360;8.726;2023-02-18T19:28:16;99920.16;;;8.96;100.00
27984;BME280;15317;50.360;8.726;2023-02-18T19:32:19;99917.88;;;8.92;100.00
27984;BME280;15317;50.360;8.726;2023-02-18T19:36:21;99914.00;;;8.94;100.00
27984;BME280;15317;50.360;8.726;2023-02-18T19:40:25;99919.41;;;8.94;100.00
27984;BME280;15317;50.360;8.726;2023-02-18T19:44:31;99918.28;;;8.97;100.00
27984;BME280;15317;50.360;8.726;2023-02-18T19:48:34;99916.72;;;8.94;100.00
27984;BME280;15317;50.360;8.726;2023-02-18T19:52:37;99912.31;;;8.93;100.00
27984;BME280;15317;50.360;8.726;2023-02-18T19:56:39;99906.16;;;8.91;100.00
27984;BME280;15317;50.360;8.726;2023-02-18T20:00:40;99896.59;;;8.87;100.00
27984;BME280;15317;50.360;8.726;2023-02-18T20:04:44;99894.47;;;8.91;100.00
27984;BME280;15317;50.360;8.726;2023-02-18T20:08:47;99888.03;;;8.82;100.00
27984;BME280;15317;50.360;8.726;2023-02-18T20:12:50;99884.34;;;8.83;100.00
27984;BME280;15317;50.360;8.726;2023-02-18T20:16:53;99880.63;;;8.84;100.00
27984;BME280;15317;50.360;8.726;2023-02-18T20:20:56;99878.91;;;8.83;100.00
27984;BME280;15317;50.360;8.726;2023-02-18T20:24:58;99886.78;;;8.86;100.00
27984;BME280;15317;50.360;8.726;2023-02-18T20:29:00;99880.19;;;8.89;100.00
27984;BME280;15317;50.360;8.726;2023-02-18T20:33:02;99881.06;;;8.89;100.00
27984;BME280;15317;50.360;8.726;2023-02-18T20:37:06;99883.38;;;8.94;100.00
27984;BME280;15317;50.360;8.726;2023-02-18T20:41:13;99879.81;;;8.93;100.00
27984;BME280;15317;50.360;8.726;2023-02-18T20:45:17;99881.06;;;8.89;100.00
27984;BME280;15317;50.360;8.726;2023-02-18T20:49:20;99881.78;;;8.91;100.00
27984;BME280;15317;50.360;8.726;2023-02-18T20:53:23;99878.34;;;8.89;100.00
27984;BME280;15317;50.360;8.726;2023-02-18T20:57:25;99871.81;;;8.92;100.00
27984;BME280;15317;50.360;8.726;2023-02-18T21:01:28;99882.50;;;8.93;100.00
27984;BME280;15317;50.360;8.726;2023-02-18T21:05:30;99877.63;;;8.87;100.00
27984;BME280;15317;50.360;8.726;2023-02-18T21:09:33;99876.63;;;8.88;100.00
27984;BME280;15317;50.360;8.726;2023-02-18T21:13:35;99877.63;;;8.87;100.00
27984;BME280;15317;50.360;8.726;2023-02-18T21:17:37;99874.34;;;8.84;100.00
27984;BME280;15317;50.360;8.726;2023-02-18T21:21:40;99871.78;;;8.82;100.00
27984;BME280;15317;50.360;8.726;2023-02-18T21:25:43;99868.94;;;8.84;100.00
27984;BME280;15317;50.360;8.726;2023-02-18T21:29:45;99873.63;;;8.82;100.00
27984;BME280;15317;50.360;8.726;2023-02-18T21:33:48;99867.78;;;8.77;100.00
27984;BME280;15317;50.360;8.726;2023-02-18T21:37:51;99859.78;;;8.75;100.00
27984;BME280;15317;50.360;8.726;2023-02-18T21:41:54;99855.91;;;8.68;100.00